Time;durP1;ratioP1;P1;durP2;ratioP2;P2;SDS_P1;SDS_P2;PMS_P1;PMS_P2;Temp;Humidity;BMP_temperature;BMP_pressure;BME280_temperature;BME280_humidity;BME280_pressure;Samples;Min_cycle;Max_cycle;Signal;HPM_P1;HPM_P2
2021/04/04 00:00:10;;;;;;;14.43;1.30;;;6.80;72.40;;;;;;5030704;28;20044;-76
2021/04/04 00:02:42;;;;;;;11.57;1.40;;;6.80;72.50;;;;;;5078721;28;20032;-76
2021/04/04 00:05:10;;;;;;;10.83;1.00;;;6.90;72.50;;;;;;5082626;28;20055;-76
2021/04/04 00:07:36;;;;;;;7.88;1.42;;;6.80;72.50;;;;;;5050375;28;20051;-76
2021/04/04 00:10:05;;;;;;;15.77;1.85;;;6.90;72.60;;;;;;5063627;28;20067;-76
2021/04/04 00:12:31;;;;;;;9.97;1.57;;;6.90;72.70;;;;;;5032338;28;20327;-76
2021/04/04 00:14:58;;;;;;;14.57;1.75;;;6.90;72.70;;;;;;5082786;28;20076;-76
2021/04/04 00:17:24;;;;;;;13.05;1.67;;;6.90;72.80;;;;;;5081645;28;20039;-75
2021/04/04 00:19:51;;;;;;;14.27;1.07;;;6.90;72.80;;;;;;5083102;28;20056;-75
2021/04/04 00:22:18;;;;;;;10.87;1.60;;;6.90;72.80;;;;;;5064246;28;20044;-76
2021/04/04 00:24:44;;;;;;;13.55;1.42;;;6.90;72.70;;;;;;5065997;28;20386;-76
2021/04/04 00:27:10;;;;;;;14.97;1.60;;;6.90;72.70;;;;;;5035645;28;20032;-76
2021/04/04 00:29:37;;;;;;;6.55;1.17;;;6.90;72.90;;;;;;5049137;28;20039;-76
2021/04/04 00:32:04;;;;;;;8.50;1.50;;;6.90;72.90;;;;;;5031997;28;20039;-75
2021/04/04 00:34:30;;;;;;;13.38;1.40;;;6.90;73.00;;;;;;5046315;28;20044;-76
2021/04/04 00:36:57;;;;;;;7.07;0.83;;;6.90;73.00;;;;;;5016014;28;20047;-77
2021/04/04 00:39:23;;;;;;;11.00;1.35;;;6.90;73.00;;;;;;5052455;28;20384;-78
2021/04/04 00:41:50;;;;;;;7.15;0.77;;;7.00;73.10;;;;;;5031671;28;20059;-76
2021/04/04 00:44:17;;;;;;;10.32;0.90;;;7.00;73.10;;;;;;5047314;28;20036;-75
2021/04/04 00:46:43;;;;;;;6.65;0.90;;;7.00;73.00;;;;;;5050338;28;20048;-74
2021/04/04 00:49:10;;;;;;;12.25;1.48;;;7.00;73.00;;;;;;5063743;28;20043;-75
2021/04/04 00:51:37;;;;;;;13.32;1.30;;;7.00;73.10;;;;;;5065177;28;20036;-77
2021/04/04 00:54:09;;;;;;;12.70;1.33;;;7.00;73.10;;;;;;5049859;28;20040;-77
2021/04/04 00:56:37;;;;;;;10.05;1.10;;;7.00;73.20;;;;;;5049817;28;20051;-77
2021/04/04 00:59:04;;;;;;;13.93;1.63;;;7.00;73.20;;;;;;5066212;28;20048;-76
2021/04/04 01:01:33;;;;;;;12.93;1.13;;;7.00;73.40;;;;;;5062570;28;20048;-76
2021/04/04 01:04:00;;;;;;;11.13;1.13;;;7.00;73.50;;;;;;5083279;28;20040;-77
2021/04/04 01:06:27;;;;;;;13.30;1.40;;;7.00;73.50;;;;;;5067189;28;20024;-76
2021/04/04 01:08:53;;;;;;;14.30;1.63;;;7.00;73.60;;;;;;5063682;28;20043;-76
2021/04/04 01:11:29;;;;;;;11.03;1.17;;;7.00;73.60;;;;;;5083537;28;20028;-76
2021/04/04 01:14:06;;;;;;;10.15;1.33;;;7.00;73.70;;;;;;5063832;28;20039;-77
2021/04/04 01:16:42;;;;;;;17.30;2.17;;;7.00;73.70;;;;;;5080600;28;20031;-77
2021/04/04 01:19:46;;;;;;;15.57;1.27;;;7.00;73.80;;;;;;5067469;28;20309;-76
2021/04/04 01:22:31;;;;;;;12.95;1.52;;;6.90;73.80;;;;;;5086219;28;20044;-76
2021/04/04 01:25:08;;;;;;;7.67;0.90;;;7.00;73.80;;;;;;5083822;28;20051;-77
2021/04/04 01:27:47;;;;;;;10.65;1.23;;;7.00;73.70;;;;;;5066773;28;20073;-77
2021/04/04 01:30:15;;;;;;;7.10;1.00;;;7.10;73.90;;;;;;5066469;28;20051;-76
2021/04/04 01:32:45;;;;;;;7.93;1.07;;;7.10;73.80;;;;;;5064343;28;20044;-76
2021/04/04 01:35:14;;;;;;;13.48;1.20;;;7.10;74.40;;;;;;5065832;28;20040;-76
2021/04/04 01:37:44;;;;;;;7.88;1.30;;;7.10;73.90;;;;;;5046521;28;20055;-76
2021/04/04 01:40:14;;;;;;;8.77;1.10;;;7.10;73.90;;;;;;5047726;28;20043;-76
2021/04/04 01:42:43;;;;;;;12.00;1.45;;;7.00;74.10;;;;;;5063970;28;20051;-77
2021/04/04 01:45:10;;;;;;;9.97;1.63;;;7.00;74.10;;;;;;5065828;28;20028;-77
2021/04/04 01:47:38;;;;;;;9.63;1.35;;;7.00;74.20;;;;;;5065707;28;20058;-76
2021/04/04 01:50:07;;;;;;;10.60;1.80;;;7.00;74.20;;;;;;5033324;28;20529;-77
2021/04/04 01:52:36;;;;;;;8.02;1.00;;;7.00;74.20;;;;;;5064050;28;20040;-76
2021/04/04 01:55:04;;;;;;;12.85;1.50;;;7.00;74.10;;;;;;5083178;28;20050;-76
2021/04/04 01:57:32;;;;;;;10.40;1.73;;;7.00;74.20;;;;;;5066070;28;20043;-76
2021/04/04 02:00:01;;;;;;;12.85;1.55;;;7.00;74.40;;;;;;5046624;28;20303;-76
2021/04/04 02:02:28;;;;;;;10.10;1.52;;;6.90;74.40;;;;;;5062835;28;20040;-76
2021/04/04 02:04:55;;;;;;;10.98;1.40;;;6.90;74.70;;;;;;5014506;28;20036;-76
2021/04/04 02:07:22;;;;;;;13.43;1.02;;;6.90;74.80;;;;;;5082277;28;20060;-76
2021/04/04 02:09:50;;;;;;;11.48;1.33;;;6.90;75.00;;;;;;5081649;28;20040;-76
2021/04/04 02:12:18;;;;;;;9.37;1.03;;;6.90;74.80;;;;;;5030232;28;20058;-76
2021/04/04 02:14:47;;;;;;;11.43;1.40;;;6.90;74.80;;;;;;5047133;28;20059;-76
2021/04/04 02:17:15;;;;;;;14.33;1.30;;;6.90;74.80;;;;;;5065276;28;20040;-77
2021/04/04 02:19:42;;;;;;;15.20;1.00;;;6.90;74.80;;;;;;5081964;28;20070;-76
2021/04/04 02:22:10;;;;;;;7.90;0.77;;;6.90;74.80;;;;;;5064225;28;20032;-76
2021/04/04 02:24:38;;;;;;;9.47;0.83;;;6.90;74.80;;;;;;5082894;28;20059;-76
2021/04/04 02:27:05;;;;;;;12.67;1.00;;;6.90;74.80;;;;;;5081276;28;20051;-76
2021/04/04 02:29:31;;;;;;;7.93;1.00;;;6.90;74.80;;;;;;5082179;28;20048;-76
2021/04/04 02:32:01;;;;;;;12.13;1.08;;;6.90;74.80;;;;;;5083375;28;20060;-76
2021/04/04 02:34:34;;;;;;;12.32;1.33;;;7.00;75.50;;;;;;5050172;28;20418;-76
2021/04/04 02:37:05;;;;;;;6.82;0.88;;;7.00;74.80;;;;;;5079866;28;20474;-76
2021/04/04 02:39:33;;;;;;;15.05;0.95;;;7.00;74.80;;;;;;5064957;28;20052;-76
2021/04/04 02:42:02;;;;;;;11.40;1.80;;;7.00;75.00;;;;;;5064550;28;20047;-76
2021/04/04 02:44:31;;;;;;;12.90;1.13;;;7.00;74.90;;;;;;5064654;28;20386;-77
2021/04/04 02:47:05;;;;;;;6.93;0.63;;;7.00;75.60;;;;;;5068122;28;20055;-76
2021/04/04 02:49:35;;;;;;;7.88;1.33;;;7.00;75.60;;;;;;5084013;28;20490;-76
2021/04/04 02:52:05;;;;;;;6.97;0.88;;;7.00;75.50;;;;;;5065003;28;20482;-76
2021/04/04 02:54:34;;;;;;;12.70;1.05;;;7.00;75.10;;;;;;5067758;28;20470;-76
2021/04/04 02:57:02;;;;;;;9.27;0.80;;;7.00;75.30;;;;;;5085802;28;20402;-76
2021/04/04 02:59:41;;;;;;;8.03;0.83;;;7.00;75.30;;;;;;5086468;28;20490;-76
2021/04/04 03:02:11;;;;;;;7.80;1.00;;;7.00;75.50;;;;;;5085927;28;20056;-76
2021/04/04 03:04:39;;;;;;;6.97;0.77;;;6.90;75.50;;;;;;5052231;28;20032;-76
2021/04/04 03:07:09;;;;;;;7.00;0.67;;;6.90;76.20;;;;;;5086195;28;20189;-76
2021/04/04 03:09:39;;;;;;;9.17;1.23;;;6.90;75.50;;;;;;5067633;28;20031;-76
2021/04/04 03:12:06;;;;;;;6.80;1.00;;;7.00;75.80;;;;;;5085622;28;20314;-76
2021/04/04 03:14:33;;;;;;;11.63;0.90;;;7.00;75.80;;;;;;5067581;28;20036;-76
2021/04/04 03:17:00;;;;;;;13.77;1.40;;;6.90;75.70;;;;;;5084941;28;20039;-76
2021/04/04 03:19:28;;;;;;;7.20;1.15;;;7.00;75.80;;;;;;5033150;28;20039;-76
2021/04/04 03:21:58;;;;;;;7.78;0.90;;;7.00;76.50;;;;;;5067166;28;20478;-76
2021/04/04 03:24:25;;;;;;;11.48;1.08;;;7.00;76.20;;;;;;5049853;28;20478;-76
2021/04/04 03:26:53;;;;;;;7.28;0.98;;;7.00;76.20;;;;;;5085417;28;20047;-78
2021/04/04 03:29:20;;;;;;;7.63;1.10;;;6.90;76.10;;;;;;5087347;28;20048;-77
2021/04/04 03:31:48;;;;;;;10.82;0.80;;;7.00;76.20;;;;;;5050392;28;20795;-77
2021/04/04 03:34:16;;;;;;;6.70;0.98;;;7.00;76.20;;;;;;5083836;28;20044;-77
2021/04/04 03:36:42;;;;;;;6.88;0.70;;;7.00;76.20;;;;;;5068167;28;20376;-77
2021/04/04 03:39:10;;;;;;;9.93;0.85;;;7.00;76.20;;;;;;5049251;28;20040;-77
2021/04/04 03:41:37;;;;;;;6.00;0.60;;;7.00;76.20;;;;;;5083993;28;20040;-77
2021/04/04 03:44:06;;;;;;;8.77;0.82;;;7.00;76.20;;;;;;5084533;28;20047;-77
2021/04/04 03:46:34;;;;;;;7.60;0.80;;;6.90;76.20;;;;;;5050227;28;20047;-77
2021/04/04 03:49:02;;;;;;;9.52;1.20;;;6.90;76.30;;;;;;5066785;28;20024;-77
2021/04/04 03:51:31;;;;;;;5.75;0.60;;;6.90;76.30;;;;;;5066379;28;20059;-77
2021/04/04 03:53:59;;;;;;;6.75;0.65;;;6.90;76.20;;;;;;5083817;28;20051;-77
2021/04/04 03:56:35;;;;;;;9.23;0.70;;;7.00;76.20;;;;;;5067225;28;20810;-77
2021/04/04 03:59:05;;;;;;;9.05;0.73;;;7.00;76.60;;;;;;5062170;28;20052;-77
2021/04/04 04:01:34;;;;;;;8.37;0.63;;;7.00;76.40;;;;;;5064262;28;20028;-77
2021/04/04 04:04:03;;;;;;;7.22;1.70;;;7.00;76.50;;;;;;5062532;28;20522;-77
2021/04/04 04:06:32;;;;;;;7.15;0.70;;;7.00;76.80;;;;;;5064184;28;20436;-77
2021/04/04 04:09:08;;;;;;;6.40;0.70;;;6.90;76.80;;;;;;5063994;28;20043;-79
2021/04/04 04:11:37;;;;;;;7.22;0.68;;;6.90;76.90;;;;;;5026854;28;20491;-77
2021/04/04 04:14:06;;;;;;;5.05;0.73;;;6.90;77.50;;;;;;5060524;28;20049;-78
2021/04/04 04:16:36;;;;;;;11.27;0.70;;;6.90;77.00;;;;;;5061369;28;20048;-78
2021/04/04 04:19:05;;;;;;;8.55;1.33;;;6.90;77.20;;;;;;5061682;28;20036;-79
2021/04/04 04:21:36;;;;;;;7.50;0.75;;;6.90;77.30;;;;;;5044040;28;20045;-78
2021/04/04 04:24:05;;;;;;;10.77;0.70;;;6.80;77.50;;;;;;5062609;28;20047;-78
2021/04/04 04:26:37;;;;;;;6.37;0.80;;;6.80;77.80;;;;;;5046299;28;20024;-78
2021/04/04 04:29:06;;;;;;;10.00;1.10;;;6.70;77.80;;;;;;5048239;28;20029;-79
2021/04/04 04:31:36;;;;;;;10.48;0.77;;;6.80;77.90;;;;;;5062117;28;20475;-79
2021/04/04 04:34:08;;;;;;;6.85;0.65;;;6.80;77.90;;;;;;5050683;28;20497;-79
2021/04/04 04:36:38;;;;;;;8.30;0.77;;;6.80;77.90;;;;;;5062011;28;20032;-79
2021/04/04 04:39:06;;;;;;;6.50;1.02;;;6.80;77.90;;;;;;5019549;28;20044;-79
2021/04/04 04:41:37;;;;;;;7.53;0.60;;;6.80;77.80;;;;;;5031805;28;20040;-80
2021/04/04 04:44:05;;;;;;;7.97;1.25;;;6.80;77.80;;;;;;5037402;28;20035;-79
2021/04/04 04:46:34;;;;;;;9.00;1.00;;;6.80;77.70;;;;;;5029236;28;20056;-79
2021/04/04 04:49:01;;;;;;;7.83;1.27;;;6.80;77.90;;;;;;5066597;28;20033;-79
2021/04/04 04:51:28;;;;;;;12.90;1.10;;;6.80;77.90;;;;;;5064931;28;20048;-79
2021/04/04 04:53:56;;;;;;;9.43;1.10;;;6.80;77.90;;;;;;5039214;28;20495;-77
2021/04/04 04:56:23;;;;;;;4.60;0.80;;;6.80;77.90;;;;;;5047288;28;20028;-76
2021/04/04 04:58:51;;;;;;;8.02;0.70;;;6.80;77.80;;;;;;5045581;28;20053;-77
2021/04/04 05:01:25;;;;;;;7.23;0.63;;;6.80;77.80;;;;;;5064049;28;20063;-77
2021/04/04 05:03:52;;;;;;;8.48;0.65;;;6.80;77.90;;;;;;5059519;28;20049;-77
2021/04/04 05:06:24;;;;;;;7.80;1.23;;;6.70;77.80;;;;;;5015594;28;20044;-77
2021/04/04 05:08:51;;;;;;;8.93;0.68;;;6.70;77.90;;;;;;5026561;28;20033;-77
2021/04/04 05:11:19;;;;;;;8.80;0.70;;;6.80;78.00;;;;;;5046891;28;20044;-77
2021/04/04 05:13:46;;;;;;;8.77;0.70;;;6.80;78.00;;;;;;5047076;28;20040;-77
2021/04/04 05:16:15;;;;;;;7.97;0.70;;;6.80;77.80;;;;;;5048342;28;20384;-78
2021/04/04 05:18:52;;;;;;;5.63;0.70;;;6.80;77.80;;;;;;5051033;28;20084;-78
2021/04/04 05:21:24;;;;;;;5.40;0.65;;;6.80;77.80;;;;;;5069554;28;20057;-78
2021/04/04 05:24:04;;;;;;;7.55;0.50;;;6.80;77.70;;;;;;5064492;28;20029;-77
2021/04/04 05:26:37;;;;;;;7.37;0.70;;;6.80;77.70;;;;;;5057099;28;20025;-78
2021/04/04 05:29:06;;;;;;;6.90;0.60;;;6.80;77.60;;;;;;5047592;28;20041;-78
2021/04/04 05:31:34;;;;;;;7.03;0.90;;;6.90;77.60;;;;;;5058941;28;20563;-77
2021/04/04 05:34:00;;;;;;;6.97;0.90;;;6.80;77.50;;;;;;5059101;28;20041;-78
2021/04/04 05:36:27;;;;;;;9.47;0.73;;;6.80;77.60;;;;;;5056649;28;20039;-78
2021/04/04 05:38:58;;;;;;;4.03;0.67;;;6.80;77.60;;;;;;5009920;28;20049;-78
2021/04/04 05:41:27;;;;;;;8.35;0.60;;;6.80;77.60;;;;;;5048870;28;20036;-78
2021/04/04 05:43:59;;;;;;;7.37;0.63;;;6.80;77.60;;;;;;5035790;28;20037;-77
2021/04/04 05:46:30;;;;;;;6.30;0.82;;;6.90;77.60;;;;;;5050487;28;20048;-78
2021/04/04 05:49:03;;;;;;;11.65;0.90;;;6.90;77.60;;;;;;5046467;28;20044;-78
2021/04/04 05:51:53;;;;;;;7.18;0.90;;;6.90;77.60;;;;;;5046501;28;20056;-78
2021/04/04 05:54:47;;;;;;;5.82;0.52;;;6.90;77.60;;;;;;5048481;28;20043;-77
2021/04/04 05:57:35;;;;;;;6.77;0.60;;;7.00;77.60;;;;;;5048723;28;20045;-77
2021/04/04 06:00:06;;;;;;;8.60;0.85;;;7.00;77.50;;;;;;5081161;28;20426;-77
2021/04/04 06:03:00;;;;;;;4.85;0.50;;;7.00;77.40;;;;;;5087127;28;20057;-78
2021/04/04 06:05:45;;;;;;;8.18;0.68;;;7.00;77.30;;;;;;5088244;28;20367;-78
2021/04/04 06:08:30;;;;;;;6.05;0.68;;;7.10;77.40;;;;;;5069754;28;20028;-78
2021/04/04 06:11:11;;;;;;;7.45;1.00;;;7.10;77.40;;;;;;5067702;28;20043;-78
2021/04/04 06:14:09;;;;;;;7.25;0.60;;;7.10;77.30;;;;;;5069538;28;20063;-78
2021/04/04 06:17:13;;;;;;;9.07;0.75;;;7.20;77.40;;;;;;5083413;28;20048;-78
2021/04/04 06:19:53;;;;;;;4.03;0.40;;;7.20;77.30;;;;;;5051229;28;20051;-78
2021/04/04 06:22:45;;;;;;;9.18;1.02;;;7.20;77.20;;;;;;5090784;28;20028;-78
2021/04/04 06:25:44;;;;;;;6.93;0.75;;;7.20;77.10;;;;;;5059144;28;20493;-78
2021/04/04 06:28:30;;;;;;;11.27;0.60;;;7.20;77.20;;;;;;5092394;28;20062;-78
2021/04/04 06:31:21;;;;;;;9.15;1.08;;;7.30;77.20;;;;;;5088884;28;20040;-78
2021/04/04 06:34:01;;;;;;;11.13;0.70;;;7.30;77.00;;;;;;5073826;28;20043;-78
2021/04/04 06:36:33;;;;;;;6.57;0.50;;;7.30;76.90;;;;;;5091579;28;20043;-78
2021/04/04 06:39:37;;;;;;;7.97;0.70;;;7.30;76.80;;;;;;5090740;28;20505;-78
2021/04/04 06:42:11;;;;;;;9.02;0.73;;;7.40;77.00;;;;;;5090311;28;20051;-78
2021/04/04 06:45:00;;;;;;;13.10;0.77;;;7.40;76.70;;;;;;5091607;28;20406;-78
2021/04/04 06:47:47;;;;;;;7.80;0.77;;;7.40;76.70;;;;;;5093456;28;20040;-78
2021/04/04 06:50:22;;;;;;;8.17;0.70;;;7.40;76.70;;;;;;5090800;28;20031;-77
2021/04/04 06:53:09;;;;;;;9.82;1.10;;;7.50;76.70;;;;;;5091257;28;20052;-78
2021/04/04 06:56:00;;;;;;;10.43;0.60;;;7.50;76.60;;;;;;5073825;28;20040;-78
2021/04/04 06:58:43;;;;;;;13.27;1.67;;;7.50;76.60;;;;;;5073871;28;20048;-78
2021/04/04 07:01:30;;;;;;;4.32;0.63;;;7.50;76.60;;;;;;5075893;28;20047;-78
2021/04/04 07:04:04;;;;;;;9.15;1.38;;;7.50;76.70;;;;;;5073877;28;20044;-78
2021/04/04 07:06:30;;;;;;;9.23;1.00;;;7.60;76.80;;;;;;5092114;28;20024;-78
2021/04/04 07:09:07;;;;;;;7.97;0.90;;;7.60;76.90;;;;;;5091601;28;20044;-78
2021/04/04 07:11:51;;;;;;;11.67;0.90;;;7.60;76.90;;;;;;5072320;28;20110;-78
2021/04/04 07:14:49;;;;;;;11.98;0.70;;;7.60;77.00;;;;;;5078213;28;20048;-78
2021/04/04 07:17:51;;;;;;;7.37;0.70;;;7.60;77.10;;;;;;5088149;28;20040;-78
2021/04/04 07:20:55;;;;;;;6.68;0.65;;;7.60;77.00;;;;;;5055283;28;20529;-78
2021/04/04 07:23:47;;;;;;;9.60;0.57;;;7.80;77.00;;;;;;5072339;28;20040;-77
2021/04/04 07:26:30;;;;;;;4.25;0.50;;;7.80;76.80;;;;;;5073302;28;20039;-78
2021/04/04 07:29:22;;;;;;;7.03;1.48;;;7.80;76.80;;;;;;5038392;28;20036;-78
2021/04/04 07:32:09;;;;;;;6.33;0.77;;;7.90;76.80;;;;;;5088447;28;20040;-78
2021/04/04 07:34:55;;;;;;;8.20;0.85;;;8.00;76.80;;;;;;5088115;28;20297;-78
2021/04/04 07:37:30;;;;;;;9.85;1.42;;;8.00;76.60;;;;;;5089969;28;20048;-79
2021/04/04 07:40:09;;;;;;;7.82;1.00;;;8.00;76.60;;;;;;5072491;28;20479;-78
2021/04/04 07:43:01;;;;;;;5.50;0.90;;;8.00;77.10;;;;;;5089728;28;20040;-78
2021/04/04 07:45:36;;;;;;;10.60;1.02;;;7.90;77.60;;;;;;5075141;28;20055;-78
2021/04/04 07:48:14;;;;;;;10.90;1.00;;;7.90;78.20;;;;;;5073194;28;20031;-78
2021/04/04 07:50:48;;;;;;;9.05;1.23;;;7.80;78.40;;;;;;5089935;28;20043;-78
2021/04/04 07:53:41;;;;;;;7.35;1.13;;;7.80;78.90;;;;;;5071243;28;20035;-78
2021/04/04 07:56:39;;;;;;;6.82;0.88;;;7.80;79.30;;;;;;5091607;28;20036;-78
2021/04/04 07:59:09;;;;;;;14.50;1.30;;;7.70;79.60;;;;;;5089848;28;20055;-78
2021/04/04 08:01:53;;;;;;;9.00;1.15;;;7.70;80.00;;;;;;5072457;28;20498;-78
2021/04/04 08:04:28;;;;;;;10.32;1.35;;;7.70;80.40;;;;;;5057972;28;20040;-78
2021/04/04 08:07:06;;;;;;;7.65;0.80;;;7.70;81.50;;;;;;5070764;28;20483;-78
2021/04/04 08:09:47;;;;;;;10.88;1.73;;;7.70;81.60;;;;;;5070075;28;20036;-78
2021/04/04 08:12:49;;;;;;;5.35;0.70;;;7.70;81.90;;;;;;5089289;28;20044;-78
2021/04/04 08:15:26;;;;;;;8.70;1.30;;;7.80;82.10;;;;;;5089841;28;20394;-78
2021/04/04 08:17:52;;;;;;;7.40;1.05;;;7.80;82.00;;;;;;5091489;28;20032;-78
2021/04/04 08:20:31;;;;;;;10.82;2.03;;;7.80;82.30;;;;;;5054911;28;20052;-78
2021/04/04 08:23:03;;;;;;;14.05;1.90;;;7.90;82.40;;;;;;5068798;28;20387;-78
2021/04/04 08:25:49;;;;;;;5.50;1.30;;;8.00;82.60;;;;;;5070639;28;20040;-78
2021/04/04 08:28:33;;;;;;;6.38;1.10;;;8.20;82.50;;;;;;5090104;28;20090;-78
2021/04/04 08:31:21;;;;;;;7.55;1.30;;;8.30;82.20;;;;;;5053414;28;20474;-78
2021/04/04 08:33:52;;;;;;;8.65;1.25;;;8.40;82.00;;;;;;5070718;28;20055;-78
2021/04/04 08:36:22;;;;;;;5.80;1.48;;;8.40;81.70;;;;;;5090325;28;20028;-77
2021/04/04 08:38:50;;;;;;;7.03;1.92;;;8.30;81.80;;;;;;5054213;28;20044;-78
2021/04/04 08:41:19;;;;;;;7.40;1.65;;;8.30;82.10;;;;;;5089191;28;20036;-78
2021/04/04 08:43:54;;;;;;;7.05;1.38;;;8.20;82.30;;;;;;5087363;28;20067;-78
2021/04/04 08:46:38;;;;;;;4.60;1.02;;;8.10;82.00;;;;;;5071206;28;20091;-77
2021/04/04 08:49:06;;;;;;;4.55;0.93;;;8.10;81.90;;;;;;5085148;28;20059;-77
2021/04/04 08:51:38;;;;;;;3.00;0.85;;;8.20;81.70;;;;;;5073105;28;20035;-78
2021/04/04 08:54:08;;;;;;;;;;;8.20;81.10;;;;;;5088476;28;20040;-78
2021/04/04 08:56:34;;;;;;;4.38;0.88;;;8.30;80.90;;;;;;5072776;28;20384;-78
2021/04/04 08:59:06;;;;;;;5.60;1.08;;;8.30;80.30;;;;;;5054983;28;21087;-78
2021/04/04 09:01:37;;;;;;;5.82;1.20;;;8.30;80.00;;;;;;5087344;28;20381;-78
2021/04/04 09:04:07;;;;;;;3.83;1.00;;;8.40;79.40;;;;;;5088026;28;20036;-78
2021/04/04 09:06:44;;;;;;;6.65;1.20;;;8.30;79.50;;;;;;5089659;28;20028;-78
2021/04/04 09:09:20;;;;;;;9.30;1.45;;;8.30;78.70;;;;;;5071861;28;20052;-78
2021/04/04 09:11:49;;;;;;;4.85;1.40;;;8.30;79.00;;;;;;5088358;28;20039;-78
2021/04/04 09:14:18;;;;;;;6.15;1.60;;;8.30;79.10;;;;;;5089232;28;20048;-78
2021/04/04 09:16:59;;;;;;;6.32;1.70;;;8.30;79.10;;;;;;5057265;28;20040;-78
2021/04/04 09:19:33;;;;;;;3.83;1.20;;;8.30;78.80;;;;;;5054855;28;20032;-78
2021/04/04 09:22:23;;;;;;;3.78;1.40;;;8.30;78.90;;;;;;5056185;28;20047;-78
2021/04/04 09:24:59;;;;;;;5.57;1.50;;;8.30;78.90;;;;;;5072680;28;20403;-78
2021/04/04 09:27:34;;;;;;;5.93;1.42;;;8.40;78.90;;;;;;5088030;28;20387;-78
2021/04/04 09:30:02;;;;;;;4.47;1.40;;;8.40;78.70;;;;;;5056810;28;20036;-80
2021/04/04 09:32:36;;;;;;;4.85;1.38;;;8.50;78.70;;;;;;5057182;28;20036;-79
2021/04/04 09:35:05;;;;;;;3.53;0.98;;;8.60;78.50;;;;;;5058446;28;20040;-78
2021/04/04 09:37:33;;;;;;;3.10;0.95;;;8.60;78.20;;;;;;5071568;28;20505;-79
2021/04/04 09:40:00;;;;;;;5.13;1.00;;;8.60;77.90;;;;;;5089826;28;20051;-79
2021/04/04 09:42:31;;;;;;;3.92;1.38;;;8.50;77.80;;;;;;5086631;28;20051;-79
2021/04/04 09:45:13;;;;;;;3.47;1.20;;;8.50;78.00;;;;;;5070069;28;20051;-78
2021/04/04 09:47:39;;;;;;;6.18;1.48;;;8.50;78.30;;;;;;5089792;28;20055;-78
2021/04/04 09:50:20;;;;;;;4.60;0.90;;;8.40;78.40;;;;;;5070092;28;20032;-78
2021/04/04 09:52:48;;;;;;;6.13;1.30;;;8.50;78.70;;;;;;5054326;28;20048;-77
2021/04/04 09:55:19;;;;;;;3.88;0.80;;;8.50;78.50;;;;;;5069981;28;20525;-83
2021/04/04 09:57:51;;;;;;;2.60;1.00;;;8.60;78.30;;;;;;5089385;28;20399;-79
2021/04/04 10:00:19;;;;;;;2.50;0.95;;;8.70;78.70;;;;;;5035796;28;20410;-79
2021/04/04 10:02:47;;;;;;;2.83;1.05;;;8.80;77.90;;;;;;5074027;28;20047;-79
2021/04/04 10:05:25;;;;;;;2.80;0.70;;;8.90;77.10;;;;;;5054267;28;20044;-78
2021/04/04 10:07:55;;;;;;;2.63;0.70;;;9.00;76.60;;;;;;5054362;28;20043;-81
2021/04/04 10:10:30;;;;;;;2.78;1.00;;;9.10;75.90;;;;;;5070350;28;20398;-77
2021/04/04 10:12:58;;;;;;;2.38;0.80;;;9.20;75.50;;;;;;5085282;28;20378;-78
2021/04/04 10:15:25;;;;;;;6.15;1.42;;;9.20;75.50;;;;;;5069749;28;20052;-77
2021/04/04 10:17:53;;;;;;;5.57;1.02;;;9.20;75.30;;;;;;5071264;28;20138;-78
2021/04/04 10:20:33;;;;;;;4.40;1.13;;;9.20;74.80;;;;;;5087652;28;20583;-75
2021/04/04 10:23:03;;;;;;;3.28;1.70;;;9.20;74.70;;;;;;5087180;28;20036;-76
2021/04/04 10:25:30;;;;;;;3.30;1.35;;;9.20;74.80;;;;;;5055134;28;20036;-76
2021/04/04 10:28:07;;;;;;;7.95;2.22;;;9.20;74.80;;;;;;5088407;28;20040;-77
2021/04/04 10:30:39;;;;;;;8.02;1.80;;;9.30;74.80;;;;;;5068590;28;20040;-76
2021/04/04 10:33:19;;;;;;;5.53;1.00;;;9.30;74.70;;;;;;5069058;28;20051;-77
2021/04/04 10:35:47;;;;;;;3.72;1.08;;;9.50;74.50;;;;;;5088721;28;20282;-77
2021/04/04 10:38:19;;;;;;;2.85;0.80;;;9.60;74.80;;;;;;5070292;28;20028;-76
2021/04/04 10:40:58;;;;;;;3.75;1.30;;;9.70;73.70;;;;;;5085274;28;20394;-77
2021/04/04 10:43:35;;;;;;;3.97;0.90;;;9.80;73.20;;;;;;5086016;28;20036;-77
2021/04/04 10:46:04;;;;;;;3.25;0.70;;;9.90;72.50;;;;;;5087255;28;20028;-78
2021/04/04 10:48:34;;;;;;;2.80;1.13;;;9.90;72.10;;;;;;5087906;28;20383;-76
2021/04/04 10:51:02;;;;;;;3.58;0.93;;;9.90;71.60;;;;;;5067367;28;20041;-78
2021/04/04 10:53:29;;;;;;;3.00;1.00;;;9.90;71.30;;;;;;5068240;28;20044;-78
2021/04/04 10:55:56;;;;;;;13.77;8.02;;;9.90;71.10;;;;;;5087542;28;20376;-77
2021/04/04 10:58:26;;;;;;;6.40;1.27;;;9.80;71.10;;;;;;5069572;28;20051;-77
2021/04/04 11:00:58;;;;;;;3.15;0.90;;;9.80;71.00;;;;;;5068559;28;20155;-77
2021/04/04 11:03:26;;;;;;;4.93;0.98;;;9.80;71.20;;;;;;5089495;28;20047;-77
2021/04/04 11:05:53;;;;;;;2.60;0.50;;;9.90;70.90;;;;;;5089636;28;20396;-77
2021/04/04 11:08:20;;;;;;;3.47;1.33;;;9.90;70.60;;;;;;5071799;28;20044;-77
2021/04/04 11:10:49;;;;;;;2.63;0.70;;;10.00;70.50;;;;;;5055272;28;20039;-75
2021/04/04 11:13:18;;;;;;;3.65;0.77;;;10.10;70.10;;;;;;5088974;28;20036;-78
2021/04/04 11:16:09;;;;;;;3.25;0.85;;;10.20;69.60;;;;;;5073249;28;20040;-78
2021/04/04 11:18:47;;;;;;;2.72;0.70;;;10.20;69.20;;;;;;5085252;28;20059;-77
2021/04/04 11:21:24;;;;;;;3.83;0.90;;;10.30;69.30;;;;;;5073130;28;20036;-77
2021/04/04 11:23:50;;;;;;;4.97;1.05;;;10.30;68.90;;;;;;5090374;28;20043;-77
2021/04/04 11:26:36;;;;;;;3.63;0.70;;;10.40;68.60;;;;;;5072707;28;20051;-77
2021/04/04 11:29:12;;;;;;;4.80;1.10;;;10.50;68.60;;;;;;5053830;28;20040;-78
2021/04/04 11:31:40;;;;;;;4.47;1.05;;;10.60;68.20;;;;;;5070261;28;20052;-77
2021/04/04 11:34:22;;;;;;;6.25;1.20;;;10.60;67.30;;;;;;5065912;28;20028;-77
2021/04/04 11:36:49;;;;;;;5.68;0.80;;;10.60;67.40;;;;;;5072457;28;20032;-78
2021/04/04 11:39:16;;;;;;;4.43;0.80;;;10.60;67.40;;;;;;5071301;28;20044;-78
2021/04/04 11:41:58;;;;;;;3.83;0.88;;;10.70;67.50;;;;;;5056925;28;20040;-78
2021/04/04 11:44:31;;;;;;;4.63;0.93;;;10.90;67.20;;;;;;5089633;28;20035;-78
2021/04/04 11:47:00;;;;;;;8.85;1.55;;;11.00;66.30;;;;;;5088278;28;20495;-78
2021/04/04 11:49:29;;;;;;;5.05;1.05;;;11.10;66.10;;;;;;5070119;28;20390;-78
2021/04/04 11:52:16;;;;;;;6.60;1.33;;;11.20;65.40;;;;;;5070630;28;20047;-78
2021/04/04 11:54:45;;;;;;;6.05;1.83;;;11.30;64.60;;;;;;5070594;28;20040;-78
2021/04/04 11:57:18;;;;;;;6.72;1.65;;;11.30;64.40;;;;;;5053247;28;20367;-78
2021/04/04 11:59:45;;;;;;;;;;;11.30;63.50;;;;;;5053442;28;20052;-78
2021/04/04 12:02:16;;;;;;;5.38;2.03;;;11.20;64.00;;;;;;5055057;28;19923;-77
2021/04/04 12:04:47;;;;;;;8.00;2.60;;;11.30;64.30;;;;;;5069937;28;20028;-78
2021/04/04 12:07:16;;;;;;;6.88;2.38;;;11.50;64.10;;;;;;5087691;28;20040;-78
2021/04/04 12:09:47;;;;;;;6.90;2.17;;;11.60;63.70;;;;;;5067210;28;20485;-78
2021/04/04 12:12:14;;;;;;;7.28;2.50;;;11.80;63.20;;;;;;5087398;28;20040;-77
2021/04/04 12:14:50;;;;;;;9.35;2.67;;;11.90;62.70;;;;;;5069229;28;20032;-78
2021/04/04 12:17:18;;;;;;;8.15;2.15;;;12.00;62.00;;;;;;5055087;28;20038;-77
2021/04/04 12:19:46;;;;;;;6.68;2.60;;;12.00;62.10;;;;;;5086530;28;20052;-78
2021/04/04 12:22:14;;;;;;;8.82;2.03;;;12.10;62.40;;;;;;5085521;28;20044;-78
2021/04/04 12:24:49;;;;;;;6.63;2.33;;;12.30;61.80;;;;;;5052723;28;20024;-78
2021/04/04 12:27:24;;;;;;;8.05;3.53;;;12.30;60.90;;;;;;5087265;28;20052;-77
2021/04/04 12:29:53;;;;;;;8.63;2.78;;;12.20;60.70;;;;;;5067066;28;20032;-76
2021/04/04 12:32:22;;;;;;;9.57;2.65;;;12.10;60.90;;;;;;5085980;28;20040;-78
2021/04/04 12:34:55;;;;;;;7.47;2.95;;;12.20;61.00;;;;;;5088577;28;20473;-76
2021/04/04 12:37:25;;;;;;;9.25;2.97;;;12.30;61.00;;;;;;5088233;28;20052;-74
2021/04/04 12:39:52;;;;;;;12.48;3.20;;;12.30;60.60;;;;;;5084088;28;20032;-75
2021/04/04 12:42:21;;;;;;;14.93;4.80;;;12.30;60.60;;;;;;5083597;28;20051;-74
2021/04/04 12:44:50;;;;;;;13.18;4.00;;;12.30;60.00;;;;;;5089269;28;20039;-76
2021/04/04 12:47:23;;;;;;;9.70;3.20;;;12.10;60.00;;;;;;5068801;28;20051;-80
2021/04/04 12:50:18;;;;;;;6.78;2.80;;;12.10;60.70;;;;;;5070890;28;20032;-74
2021/04/04 12:52:51;;;;;;;10.52;3.40;;;12.20;60.70;;;;;;5087258;28;20051;-75
2021/04/04 12:55:26;;;;;;;5.65;2.63;;;12.20;60.70;;;;;;5053024;28;20055;-75
2021/04/04 12:57:56;;;;;;;6.00;2.50;;;12.30;60.70;;;;;;5054257;28;20379;-77
2021/04/04 13:00:24;;;;;;;10.95;3.75;;;12.40;60.50;;;;;;5085748;28;20062;-75
2021/04/04 13:03:10;;;;;;;6.07;2.45;;;12.50;60.20;;;;;;5086414;28;20051;-76
2021/04/04 13:05:39;;;;;;;9.13;3.30;;;12.70;60.20;;;;;;5087211;28;20055;-77
2021/04/04 13:08:13;;;;;;;10.30;3.83;;;12.80;59.50;;;;;;5035447;28;20478;-76
2021/04/04 13:10:41;;;;;;;8.65;3.72;;;12.90;59.50;;;;;;5066813;28;20024;-77
2021/04/04 13:13:17;;;;;;;7.13;3.38;;;13.00;58.60;;;;;;5086659;28;20513;-76
2021/04/04 13:15:44;;;;;;;6.03;3.10;;;13.00;58.20;;;;;;5089500;28;20410;-76
2021/04/04 13:18:34;;;;;;;7.47;2.75;;;13.00;58.20;;;;;;5054860;28;20398;-76
2021/04/04 13:21:04;;;;;;;9.90;2.47;;;13.10;57.90;;;;;;5084618;28;20051;-76
2021/04/04 13:23:41;;;;;;;8.13;3.25;;;13.30;57.90;;;;;;5084732;28;20053;-74